Bieber, California
Current Conditions -  °F | °C
As of 10:55 AM on Monday 20 Oct 2014 (Local Time) from KAAT Reporting Station
Clear Clear  
Wind Chill: 65°   Ceiling: Unl
Heat Index: 65°   Visibility: 10mi
Dew Point: 33°   Wind: 21mph
Humidity: 31%   Direction: 190°S
Pressure: 29.9"   Gusts: 26mph
Location:  41.12°N, 121.15°W
Report Text: KAAT 201755Z AUTO 19018G23KT 10SM CLR 18/01 A2990 RMK AO2 SLP102 T01830006 10183 20072 58002
Loading
Personal Weather Stations






























Interactive Weather Map
Tropical Storm Tracking
New forecast layout! Learn more

10-Day Weather Forecast

Advertisements
Track Severe Weather on mobile